createdAt,value
2018-01-14T00:01:45.561Z,6.50
2018-01-14T00:04:12.509Z,6.50
2018-01-14T00:06:39.371Z,6.50
2018-01-14T00:09:06.221Z,6.50
2018-01-14T00:11:33.132Z,6.50
2018-01-14T00:13:59.976Z,6.50
2018-01-14T00:16:26.876Z,6.50
2018-01-14T00:18:54.185Z,6.50
2018-01-14T00:21:21.132Z,6.50
2018-01-14T00:23:48.012Z,6.40
2018-01-14T00:26:14.926Z,6.40
2018-01-14T00:28:41.800Z,6.40
2018-01-14T00:31:08.712Z,6.40
2018-01-14T00:33:35.655Z,6.40
2018-01-14T00:36:02.501Z,6.30
2018-01-14T00:38:29.444Z,6.40
2018-01-14T00:40:56.415Z,6.40
2018-01-14T00:43:23.341Z,6.40
2018-01-14T00:45:50.289Z,6.30
2018-01-14T00:48:17.233Z,6.30
2018-01-14T00:50:44.080Z,6.30
2018-01-14T00:53:11.024Z,6.40
2018-01-14T00:55:37.972Z,6.30
2018-01-14T00:58:04.918Z,6.40
2018-01-14T01:00:31.908Z,6.40
2018-01-14T01:02:59.164Z,6.30
2018-01-14T01:05:26.472Z,6.30
2018-01-14T01:07:53.336Z,6.30
2018-01-14T01:10:20.193Z,6.30
2018-01-14T01:12:47.105Z,6.30
2018-01-14T01:15:13.961Z,6.20
2018-01-14T01:17:40.820Z,6.10
2018-01-14T01:20:07.696Z,6.10
2018-01-14T01:22:34.958Z,6.20
2018-01-14T01:25:01.828Z,6.20
2018-01-14T01:27:28.680Z,6.00
2018-01-14T01:29:55.623Z,5.90
2018-01-14T01:32:22.568Z,5.90
2018-01-14T01:34:49.476Z,6.00
2018-01-14T01:37:16.772Z,6.10
2018-01-14T01:39:43.714Z,6.10
2018-01-14T01:42:10.668Z,6.10
2018-01-14T01:44:37.517Z,6.00
2018-01-14T01:47:04.461Z,5.90
2018-01-14T01:49:31.320Z,5.90
2018-01-14T01:51:58.252Z,5.70
2018-01-14T01:54:25.118Z,5.60
2018-01-14T01:56:52.033Z,5.70
2018-01-14T01:59:18.986Z,5.70
2018-01-14T02:01:45.932Z,5.80
2018-01-14T02:04:12.968Z,5.80
2018-01-14T02:06:40.118Z,5.70
2018-01-14T02:09:06.989Z,5.80
2018-01-14T02:11:33.877Z,5.70
2018-01-14T02:14:01.116Z,5.80
2018-01-14T02:16:28.470Z,5.80
2018-01-14T02:18:55.372Z,5.80
2018-01-14T02:21:22.241Z,5.90
2018-01-14T02:23:49.084Z,5.80
2018-01-14T02:26:16.005Z,5.80
2018-01-14T02:28:42.961Z,5.70
2018-01-14T02:31:09.904Z,5.60
2018-01-14T02:33:36.744Z,5.60
2018-01-14T02:36:03.696Z,5.50
2018-01-14T02:38:30.637Z,5.40
2018-01-14T02:40:57.511Z,5.40
2018-01-14T02:43:24.378Z,5.40
2018-01-14T02:45:51.680Z,5.50
2018-01-14T02:48:18.624Z,5.50
2018-01-14T02:50:45.506Z,5.60
2018-01-14T02:53:12.408Z,5.50
2018-01-14T02:55:39.260Z,5.40
2018-01-14T02:58:06.221Z,5.20
2018-01-14T03:00:33.085Z,5.20
2018-01-14T03:03:00.000Z,5.30
2018-01-14T03:05:26.954Z,5.20
2018-01-14T03:07:53.901Z,5.20
2018-01-14T03:10:20.865Z,5.10
2018-01-14T03:12:47.792Z,4.90
2018-01-14T03:15:14.645Z,4.90
2018-01-14T03:17:41.576Z,5.00
2018-01-14T03:20:08.535Z,5.00
2018-01-14T03:22:35.473Z,5.10
2018-01-14T03:25:02.437Z,5.00
2018-01-14T03:27:29.292Z,4.90
2018-01-14T03:29:56.140Z,5.00
2018-01-14T03:32:23.004Z,5.00
2018-01-14T03:34:50.264Z,5.10
2018-01-14T03:37:17.124Z,5.10
2018-01-14T03:39:44.009Z,5.10
2018-01-14T03:42:10.874Z,5.20
2018-01-14T03:44:37.792Z,5.20
2018-01-14T03:47:04.731Z,5.30
2018-01-14T03:49:31.596Z,5.20
2018-01-14T03:51:58.448Z,5.20
2018-01-14T03:54:25.368Z,5.20
2018-01-14T03:56:52.229Z,5.20
2018-01-14T03:59:19.158Z,5.00
2018-01-14T04:01:46.016Z,5.00
2018-01-14T04:04:12.952Z,5.00
2018-01-14T04:06:39.892Z,4.90
2018-01-14T04:09:06.737Z,4.90
2018-01-14T04:11:33.606Z,5.00
2018-01-14T04:14:00.522Z,5.00
2018-01-14T04:16:27.468Z,5.10
2018-01-14T04:18:54.421Z,5.00
2018-01-14T04:21:21.300Z,4.90
2018-01-14T04:23:48.212Z,4.80
2018-01-14T04:26:15.056Z,4.80
2018-01-14T04:28:42.004Z,4.90
2018-01-14T04:31:08.944Z,5.00
2018-01-14T04:33:35.906Z,4.90
2018-01-14T04:36:02.859Z,5.00
2018-01-14T04:38:29.798Z,5.00
2018-01-14T04:40:56.737Z,5.10
2018-01-14T04:43:23.681Z,5.10
2018-01-14T04:45:50.629Z,4.90
2018-01-14T04:48:17.568Z,4.90
2018-01-14T04:50:44.524Z,4.90
2018-01-14T04:53:11.467Z,5.00
2018-01-14T04:55:38.413Z,4.90
2018-01-14T04:58:05.264Z,4.90
2018-01-14T05:00:32.141Z,4.90
2018-01-14T05:02:59.054Z,4.90
2018-01-14T05:05:25.904Z,5.00
2018-01-14T05:07:52.834Z,5.00
2018-01-14T05:10:19.776Z,5.10
2018-01-14T05:12:46.649Z,5.00
2018-01-14T05:15:13.564Z,5.00
2018-01-14T05:17:40.522Z,5.00
2018-01-14T05:20:07.368Z,5.00
2018-01-14T05:22:34.408Z,4.90
2018-01-14T05:25:01.272Z,4.80
2018-01-14T05:27:28.204Z,4.70
2018-01-14T05:29:55.148Z,4.70
2018-01-14T05:32:22.096Z,4.60
2018-01-14T05:34:48.957Z,4.70
2018-01-14T05:37:15.886Z,4.70
2018-01-14T05:39:42.832Z,4.60
2018-01-14T05:42:09.777Z,4.60
2018-01-14T05:44:36.634Z,4.70
2018-01-14T05:47:04.208Z,4.80
2018-01-14T05:49:31.508Z,4.70
2018-01-14T05:51:58.743Z,4.70
2018-01-14T05:54:26.045Z,4.60
2018-01-14T05:56:52.992Z,4.60
2018-01-14T05:59:19.863Z,4.50
2018-01-14T06:01:46.725Z,4.50
2018-01-14T06:04:13.580Z,4.60
2018-01-14T06:06:40.885Z,4.70
2018-01-14T06:09:07.729Z,4.70
2018-01-14T06:11:34.593Z,4.80
2018-01-14T06:14:01.512Z,4.80
2018-01-14T06:16:28.372Z,4.70
2018-01-14T06:18:55.301Z,4.70
2018-01-14T06:21:22.168Z,4.70
2018-01-14T06:23:49.041Z,4.90
2018-01-14T06:26:16.352Z,4.80
2018-01-14T06:28:43.285Z,4.80
2018-01-14T06:31:10.157Z,4.80
2018-01-14T06:33:37.084Z,4.80
2018-01-14T06:36:03.941Z,4.70
2018-01-14T06:38:30.873Z,4.60
2018-01-14T06:40:57.825Z,4.60
2018-01-14T06:43:24.872Z,4.50
2018-01-14T06:45:51.817Z,4.40
2018-01-14T06:48:18.764Z,4.30
2018-01-14T06:50:45.713Z,4.30
2018-01-14T06:53:12.657Z,4.30
2018-01-14T06:55:39.520Z,4.30
2018-01-14T06:58:06.372Z,4.40
2018-01-14T07:00:33.247Z,4.50
2018-01-14T07:03:00.549Z,4.50
2018-01-14T07:05:27.492Z,4.50
2018-01-14T07:07:54.438Z,4.50
2018-01-14T07:10:21.308Z,4.60
2018-01-14T07:12:48.255Z,4.60
2018-01-14T07:15:15.185Z,4.70
2018-01-14T07:17:42.213Z,4.60
2018-01-14T07:20:09.041Z,4.70
2018-01-14T07:22:36.021Z,4.70
2018-01-14T07:25:02.964Z,4.70
2018-01-14T07:27:29.918Z,4.80
2018-01-14T07:29:56.870Z,4.80
2018-01-14T07:32:23.717Z,4.60
2018-01-14T07:34:50.599Z,4.70
2018-01-14T07:37:17.501Z,4.70
2018-01-14T07:39:44.437Z,4.70
2018-01-14T07:42:11.309Z,4.70
2018-01-14T07:44:38.235Z,4.60
2018-01-14T07:47:05.081Z,4.60
2018-01-14T07:49:31.946Z,4.50
2018-01-14T07:51:58.816Z,4.50
2018-01-14T07:54:26.060Z,4.60
2018-01-14T07:56:53.378Z,4.70
2018-01-14T07:59:20.319Z,4.70
2018-01-14T08:01:47.261Z,4.80
2018-01-14T08:04:14.316Z,4.80
2018-01-14T08:06:41.163Z,4.80
2018-01-14T08:09:08.117Z,4.80
2018-01-14T08:11:34.993Z,4.90
2018-01-14T08:14:02.298Z,4.80
2018-01-14T08:16:29.335Z,4.80
2018-01-14T08:18:56.168Z,4.80
2018-01-14T08:21:23.127Z,4.70
2018-01-14T08:23:49.996Z,4.70
2018-01-14T08:26:16.845Z,4.60
2018-01-14T08:28:43.774Z,4.60
2018-01-14T08:31:10.654Z,4.60
2018-01-14T08:33:37.584Z,4.70
2018-01-14T08:36:04.605Z,4.70
2018-01-14T08:38:31.429Z,4.70
2018-01-14T08:40:58.311Z,4.90
2018-01-14T08:43:25.243Z,5.00
2018-01-14T08:45:52.191Z,4.90
2018-01-14T08:48:19.144Z,5.00
2018-01-14T08:50:46.093Z,5.00
2018-01-14T08:53:13.050Z,5.00
2018-01-14T08:55:39.912Z,5.00
2018-01-14T08:58:06.829Z,5.10
2018-01-14T09:00:33.681Z,5.10
2018-01-14T09:03:00.548Z,5.20
2018-01-14T09:05:27.401Z,5.20
2018-01-14T09:07:54.748Z,5.20
2018-01-14T09:10:21.593Z,5.20
2018-01-14T09:12:48.444Z,5.30
2018-01-14T09:15:15.349Z,5.20
2018-01-14T09:17:42.220Z,5.20
2018-01-14T09:20:09.144Z,5.20
2018-01-14T09:22:36.014Z,5.10
2018-01-14T09:25:02.933Z,5.00
2018-01-14T09:27:29.872Z,4.90
2018-01-14T09:29:56.737Z,5.00
2018-01-14T09:32:23.666Z,5.10
2018-01-14T09:34:50.538Z,5.10
2018-01-14T09:37:17.376Z,5.10
2018-01-14T09:39:44.292Z,5.10
2018-01-14T09:42:11.240Z,5.20
2018-01-14T09:44:38.121Z,5.30
2018-01-14T09:47:05.043Z,5.20
2018-01-14T09:49:31.917Z,5.30
2018-01-14T09:51:58.885Z,5.30
2018-01-14T09:54:26.125Z,5.10
2018-01-14T09:56:53.446Z,5.20
2018-01-14T09:59:20.373Z,5.20
2018-01-14T10:01:47.240Z,5.20
2018-01-14T10:04:14.096Z,5.10
2018-01-14T10:06:41.008Z,5.10
2018-01-14T10:09:07.970Z,5.20
2018-01-14T10:11:34.909Z,5.20
2018-01-14T10:14:01.872Z,5.30
2018-01-14T10:16:28.700Z,5.40
2018-01-14T10:18:55.548Z,5.40
2018-01-14T10:21:22.505Z,5.40
2018-01-14T10:23:49.432Z,5.40
2018-01-14T10:26:16.390Z,5.40
2018-01-14T10:28:43.234Z,5.40
2018-01-14T10:31:10.569Z,5.30
2018-01-14T10:33:37.425Z,5.30
2018-01-14T10:36:04.298Z,5.40
2018-01-14T10:38:31.142Z,5.60
2018-01-14T10:40:58.065Z,5.70
2018-01-14T10:43:25.017Z,5.80
2018-01-14T10:45:52.051Z,5.80
2018-01-14T10:48:18.909Z,5.80
2018-01-14T10:50:45.844Z,5.90
2018-01-14T10:53:12.892Z,5.90
2018-01-14T10:55:39.760Z,5.90
2018-01-14T10:58:06.701Z,5.80
2018-01-14T11:00:33.561Z,5.80
2018-01-14T11:03:00.894Z,5.80
2018-01-14T11:05:27.824Z,5.70
2018-01-14T11:07:54.997Z,5.60
2018-01-14T11:10:21.928Z,5.50
2018-01-14T11:12:48.782Z,5.40
2018-01-14T11:15:15.654Z,5.60
2018-01-14T11:17:42.492Z,5.70
2018-01-14T11:20:09.384Z,5.90
2018-01-14T11:22:36.229Z,6.00
2018-01-14T11:25:03.078Z,6.00
2018-01-14T11:27:30.037Z,5.90
2018-01-14T11:30:00.869Z,5.90
2018-01-14T11:32:27.823Z,6.00
2018-01-14T11:34:54.693Z,6.10
2018-01-14T11:37:21.621Z,6.30
2018-01-14T11:39:48.560Z,6.40
2018-01-14T11:42:15.426Z,6.30
2018-01-14T11:44:42.341Z,6.40
2018-01-14T11:47:09.202Z,6.30
2018-01-14T11:49:36.141Z,6.30
2018-01-14T11:52:03.007Z,6.40
2018-01-14T11:54:29.876Z,6.50
2018-01-14T11:56:56.736Z,6.60
2018-01-14T11:59:23.596Z,6.50
2018-01-14T12:01:50.966Z,6.50
2018-01-14T12:04:17.923Z,6.60
2018-01-14T12:06:44.769Z,6.60
2018-01-14T12:09:11.720Z,6.50
2018-01-14T12:11:38.656Z,6.60
2018-01-14T12:14:05.511Z,6.70
2018-01-14T12:16:32.425Z,6.70
2018-01-14T12:18:59.393Z,6.70
2018-01-14T12:21:26.336Z,6.70
2018-01-14T12:23:53.202Z,6.80
2018-01-14T12:26:20.137Z,6.90
2018-01-14T12:28:47.133Z,6.90
2018-01-14T12:31:13.933Z,6.90
2018-01-14T12:36:48.164Z,6.90
2018-01-14T12:39:15.109Z,6.80
2018-01-14T12:41:41.993Z,6.80
2018-01-14T12:44:08.912Z,6.90
2018-01-14T12:46:35.844Z,6.90
2018-01-14T12:49:02.692Z,7.00
2018-01-14T12:51:29.636Z,7.20
2018-01-14T12:53:56.590Z,7.20
2018-01-14T12:56:23.444Z,7.30
2018-01-14T12:58:50.314Z,7.50
2018-01-14T13:01:17.319Z,7.40
2018-01-14T13:03:44.155Z,7.30
2018-01-14T13:06:11.100Z,7.20
2018-01-14T13:08:37.965Z,7.00
2018-01-14T13:11:05.068Z,7.00
2018-01-14T13:13:31.919Z,7.10
2018-01-14T13:15:59.553Z,7.00
2018-01-14T13:18:26.442Z,7.00
2018-01-14T13:20:53.318Z,7.10
2018-01-14T13:23:20.264Z,7.20
2018-01-14T13:25:47.120Z,7.10
2018-01-14T13:28:14.045Z,7.10
2018-01-14T13:30:41.077Z,7.20
2018-01-14T13:33:08.024Z,7.30
2018-01-14T13:35:34.992Z,7.30
2018-01-14T13:38:01.836Z,7.30
2018-01-14T13:40:28.677Z,7.30
2018-01-14T13:42:55.716Z,7.40
2018-01-14T13:45:22.557Z,7.30
2018-01-14T13:47:49.396Z,7.40
2018-01-14T13:50:16.345Z,7.40
2018-01-14T13:52:43.188Z,7.40
2018-01-14T13:55:10.060Z,7.40
2018-01-14T13:57:36.906Z,7.40
2018-01-14T14:00:03.840Z,7.40
2018-01-14T14:02:30.704Z,7.40
2018-01-14T14:04:57.622Z,7.40
2018-01-14T14:07:24.560Z,7.40
2018-01-14T14:09:51.509Z,7.40
2018-01-14T14:12:18.461Z,7.50
2018-01-14T14:14:45.464Z,7.50
2018-01-14T14:17:12.353Z,7.50
2018-01-14T14:19:39.212Z,7.50
2018-01-14T14:22:06.152Z,7.50
2018-01-14T14:24:33.028Z,7.50
2018-01-14T14:26:59.874Z,7.40
2018-01-14T14:29:26.730Z,7.40
2018-01-14T14:31:54.029Z,7.50
2018-01-14T14:34:20.876Z,7.50
2018-01-14T14:36:47.823Z,7.60
2018-01-14T14:39:14.764Z,7.60
2018-01-14T14:41:41.716Z,7.60
2018-01-14T14:44:08.590Z,7.60
2018-01-14T14:46:35.508Z,7.60
2018-01-14T14:49:02.452Z,7.50
2018-01-14T14:51:29.312Z,7.50
2018-01-14T14:53:56.236Z,7.50
2018-01-14T14:56:23.130Z,7.50
2018-01-14T14:58:49.969Z,7.50
2018-01-14T15:01:16.817Z,7.50
2018-01-14T15:03:43.677Z,7.50
2018-01-14T15:06:10.945Z,7.50
2018-01-14T15:08:38.203Z,7.60
2018-01-14T15:11:05.072Z,7.60
2018-01-14T15:13:31.916Z,7.50
2018-01-14T15:15:58.865Z,7.50
2018-01-14T15:18:25.727Z,7.40
2018-01-14T15:20:52.592Z,7.30
2018-01-14T15:23:19.591Z,7.30
2018-01-14T15:25:46.438Z,7.30
2018-01-14T15:28:13.296Z,7.20
2018-01-14T15:30:45.038Z,7.20
2018-01-14T15:33:11.892Z,7.10
2018-01-14T15:35:38.836Z,7.00
2018-01-14T15:38:05.708Z,7.00
2018-01-14T15:40:32.629Z,7.10
2018-01-14T15:42:59.492Z,7.10
2018-01-14T15:45:26.340Z,7.00
2018-01-14T15:47:53.236Z,7.10
2018-01-14T15:50:20.096Z,7.10
2018-01-14T15:52:46.968Z,7.10
2018-01-14T15:55:13.909Z,7.00
2018-01-14T15:57:40.756Z,7.00
2018-01-14T16:00:07.692Z,6.90
2018-01-14T16:02:34.564Z,6.90
2018-01-14T16:05:01.479Z,6.90
2018-01-14T16:07:28.424Z,6.80
2018-01-14T16:09:55.276Z,6.70
2018-01-14T16:12:22.140Z,6.70
2018-01-14T16:14:49.056Z,6.80
2018-01-14T16:17:15.911Z,6.80
2018-01-14T16:19:42.813Z,6.80
2018-01-14T16:22:10.104Z,6.90
2018-01-14T16:24:36.952Z,6.90
2018-01-14T16:27:04.804Z,6.90
2018-01-14T16:29:31.661Z,6.90
2018-01-14T16:31:58.664Z,6.90
2018-01-14T16:34:25.974Z,6.80
2018-01-14T16:36:52.910Z,6.80
2018-01-14T16:39:19.769Z,6.80
2018-01-14T16:41:46.706Z,6.80
2018-01-14T16:44:13.564Z,6.80
2018-01-14T16:46:40.505Z,6.80
2018-01-14T16:49:07.437Z,6.80
2018-01-14T16:51:34.280Z,6.70
2018-01-14T16:54:01.155Z,6.70
2018-01-14T16:56:28.022Z,6.60
2018-01-14T16:58:54.852Z,6.50
2018-01-14T17:01:21.864Z,6.50
2018-01-14T17:03:48.736Z,6.40
2018-01-14T17:06:15.743Z,6.30
2018-01-14T17:08:42.596Z,6.20
2018-01-14T17:11:09.494Z,6.10
2018-01-14T17:13:36.388Z,6.00
2018-01-14T17:16:03.394Z,6.00
2018-01-14T17:18:30.697Z,5.90
2018-01-14T17:20:57.543Z,5.90
2018-01-14T17:23:24.508Z,5.80
2018-01-14T17:25:51.544Z,5.60
2018-01-14T17:28:18.465Z,5.60
2018-01-14T17:30:45.360Z,5.50
2018-01-14T17:33:12.229Z,5.50
2018-01-14T17:35:39.100Z,5.40
2018-01-14T17:38:06.057Z,5.40
2018-01-14T17:40:33.018Z,5.30
2018-01-14T17:42:59.865Z,5.20
2018-01-14T17:45:26.809Z,5.20
2018-01-14T17:47:53.682Z,5.10
2018-01-14T17:50:20.599Z,5.10
2018-01-14T17:52:47.561Z,5.00
2018-01-14T17:55:14.481Z,5.00
2018-01-14T17:57:41.424Z,5.00
2018-01-14T18:00:08.373Z,5.00
2018-01-14T18:02:35.241Z,4.80
2018-01-14T18:05:02.158Z,4.70
2018-01-14T18:07:29.116Z,4.60
2018-01-14T18:09:56.057Z,4.50
2018-01-14T18:12:22.900Z,4.60
2018-01-14T18:14:49.857Z,4.60
2018-01-14T18:17:24.540Z,4.50
2018-01-14T18:19:51.864Z,4.50
2018-01-14T18:22:18.789Z,4.50
2018-01-14T18:24:45.628Z,4.50
2018-01-14T18:27:12.594Z,4.50
2018-01-14T18:29:39.435Z,4.60
2018-01-14T18:32:06.354Z,4.60
2018-01-14T18:34:33.544Z,4.60
2018-01-14T18:37:00.459Z,4.60
2018-01-14T18:39:27.320Z,4.60
2018-01-14T18:41:54.248Z,4.60
2018-01-14T18:44:21.219Z,4.60
2018-01-14T18:46:48.069Z,4.50
2018-01-14T18:49:14.977Z,4.50
2018-01-14T18:51:41.926Z,4.40
2018-01-14T18:54:08.902Z,4.40
2018-01-14T18:56:35.748Z,4.40
2018-01-14T18:59:02.657Z,4.40
2018-01-14T19:01:29.619Z,4.30
2018-01-14T19:03:56.553Z,4.30
2018-01-14T19:06:23.583Z,4.30
2018-01-14T19:08:50.368Z,4.40
2018-01-14T19:11:17.296Z,4.40
2018-01-14T19:13:44.240Z,4.40
2018-01-14T19:16:11.132Z,4.40
2018-01-14T19:18:38.398Z,4.40
2018-01-14T19:21:05.684Z,4.40
2018-01-14T19:23:32.641Z,4.40
2018-01-14T19:25:59.592Z,4.40
2018-01-14T19:28:26.532Z,4.30
2018-01-14T19:30:53.417Z,4.30
2018-01-14T19:33:20.330Z,4.20
2018-01-14T19:35:47.280Z,4.20
2018-01-14T19:38:14.208Z,4.20
2018-01-14T19:40:41.068Z,4.20
2018-01-14T19:43:08.005Z,4.10
2018-01-14T19:45:34.961Z,4.10
2018-01-14T19:48:01.812Z,4.10
2018-01-14T19:50:28.667Z,4.20
2018-01-14T19:52:55.541Z,4.20
2018-01-14T19:55:22.844Z,4.20
2018-01-14T19:57:49.787Z,4.20
2018-01-14T20:00:16.745Z,4.10
2018-01-14T20:02:43.593Z,4.10
2018-01-14T20:05:10.444Z,4.00
2018-01-14T20:07:37.377Z,4.00
2018-01-14T20:10:04.248Z,4.10
2018-01-14T20:12:31.098Z,4.00
2018-01-14T20:14:57.937Z,4.00
2018-01-14T20:17:24.844Z,4.00
2018-01-14T20:19:51.805Z,4.00
2018-01-14T20:22:18.697Z,3.90
2018-01-14T20:24:45.952Z,3.90
2018-01-14T20:27:13.261Z,3.90
2018-01-14T20:29:40.198Z,3.90
2018-01-14T20:32:07.136Z,3.90
2018-01-14T20:34:34.085Z,3.80
2018-01-14T20:37:00.928Z,3.80
2018-01-14T20:39:27.795Z,3.90
2018-01-14T20:41:54.660Z,3.90
2018-01-14T20:44:21.569Z,3.90
2018-01-14T20:46:48.433Z,3.80
2018-01-14T20:49:15.300Z,3.80
2018-01-14T20:51:42.615Z,3.70
2018-01-14T20:54:09.561Z,3.70
2018-01-14T20:56:36.426Z,3.70
2018-01-14T20:59:03.349Z,3.70
2018-01-14T21:01:30.224Z,3.70
2018-01-14T21:03:57.057Z,3.60
2018-01-14T21:06:23.981Z,3.60
2018-01-14T21:08:50.828Z,3.60
2018-01-14T21:11:17.688Z,3.50
2018-01-14T21:13:44.707Z,3.50
2018-01-14T21:16:11.661Z,3.60
2018-01-14T21:18:38.525Z,3.60
2018-01-14T21:21:05.386Z,3.60
2018-01-14T21:23:32.304Z,3.50
2018-01-14T21:25:59.249Z,3.50
2018-01-14T21:28:26.227Z,3.50
2018-01-14T21:30:53.136Z,3.50
2018-01-14T21:33:20.110Z,3.50
2018-01-14T21:35:46.937Z,3.40
2018-01-14T21:38:13.811Z,3.50
2018-01-14T21:40:40.720Z,3.40
2018-01-14T21:43:07.765Z,3.40
2018-01-14T21:45:34.709Z,3.40
2018-01-14T21:48:01.661Z,3.30
2018-01-14T21:50:28.601Z,3.30
2018-01-14T21:52:55.477Z,3.30
2018-01-14T21:55:22.396Z,3.30
2018-01-14T21:57:49.344Z,3.30
2018-01-14T22:00:16.216Z,3.30
2018-01-14T22:02:43.090Z,3.30
2018-01-14T22:05:10.329Z,3.20
2018-01-14T22:07:37.584Z,3.20
2018-01-14T22:10:04.890Z,3.10
2018-01-14T22:12:31.737Z,3.10
2018-01-14T22:14:58.604Z,3.20
2018-01-14T22:17:25.532Z,3.10
2018-01-14T22:19:52.472Z,2.80
2018-01-14T22:22:19.388Z,2.80
2018-01-14T22:24:46.233Z,2.90
2018-01-14T22:27:13.204Z,2.80
2018-01-14T22:29:40.160Z,2.80
2018-01-14T22:32:07.127Z,2.70
2018-01-14T22:34:33.993Z,2.70
2018-01-14T22:37:01.301Z,2.70
2018-01-14T22:39:28.178Z,2.70
2018-01-14T22:41:55.064Z,2.70
2018-01-14T22:44:21.934Z,2.80
2018-01-14T22:46:48.780Z,2.80
2018-01-14T22:49:15.640Z,2.80
2018-01-14T22:51:42.671Z,2.70
2018-01-14T22:54:09.629Z,2.70
2018-01-14T22:56:36.572Z,2.60
2018-01-14T22:59:03.537Z,2.60
2018-01-14T23:01:30.460Z,2.50
2018-01-14T23:03:57.306Z,2.50
2018-01-14T23:06:24.254Z,2.50
2018-01-14T23:08:51.196Z,2.50
2018-01-14T23:11:18.067Z,2.60
2018-01-14T23:13:44.988Z,2.60
2018-01-14T23:16:11.936Z,2.60
2018-01-14T23:18:38.792Z,2.60
2018-01-14T23:21:05.714Z,2.40
2018-01-14T23:23:32.568Z,2.40
2018-01-14T23:25:59.414Z,2.50
2018-01-14T23:28:26.360Z,2.50
2018-01-14T23:30:53.309Z,2.30
2018-01-14T23:33:20.188Z,2.20
2018-01-14T23:35:47.096Z,2.20
2018-01-14T23:38:14.041Z,2.20
2018-01-14T23:40:41.000Z,2.30
2018-01-14T23:43:07.840Z,2.20
2018-01-14T23:45:34.776Z,2.00
2018-01-14T23:48:01.728Z,2.00
2018-01-14T23:50:28.668Z,2.10
2018-01-14T23:52:55.532Z,2.10
2018-01-14T23:55:22.493Z,2.20
2018-01-14T23:57:49.413Z,2.40
